createdAt,value
2023-03-26T00:01:54.943Z,53.77
2023-03-26T00:04:23.223Z,53.77
2023-03-26T00:06:51.628Z,53.73
2023-03-26T00:09:20.186Z,53.63
2023-03-26T00:11:48.338Z,53.65
2023-03-26T00:14:16.480Z,53.58
2023-03-26T00:16:45.462Z,53.54
2023-03-26T00:19:14.219Z,53.55
2023-03-26T00:21:42.374Z,53.43
2023-03-26T00:24:13.220Z,53.37
2023-03-26T00:26:41.592Z,53.22
2023-03-26T00:29:09.743Z,53.50
2023-03-26T00:31:38.149Z,53.58
2023-03-26T00:34:06.885Z,53.65
2023-03-26T00:36:35.029Z,53.78
2023-03-26T00:39:05.444Z,54.14
2023-03-26T00:41:34.347Z,54.69
2023-03-26T00:44:03.127Z,54.89
2023-03-26T00:46:32.360Z,55.23
2023-03-26T00:49:01.408Z,55.62
2023-03-26T00:51:30.063Z,55.82
2023-03-26T00:53:58.529Z,56.23
2023-03-26T00:56:27.066Z,56.51
2023-03-26T00:58:55.160Z,57.05
2023-03-26T01:01:27.084Z,56.98
2023-03-26T01:04:07.590Z,57.07
2023-03-26T01:06:40.017Z,57.32
2023-03-26T01:09:18.096Z,57.21
2023-03-26T01:11:47.861Z,57.16
2023-03-26T01:14:17.886Z,57.05
2023-03-26T01:16:53.205Z,57.06
2023-03-26T01:19:40.301Z,57.00
2023-03-26T01:22:10.650Z,56.97
2023-03-26T01:24:40.699Z,56.86
2023-03-26T01:27:35.483Z,56.78
2023-03-26T01:30:28.309Z,56.64
2023-03-26T01:33:19.820Z,56.40
2023-03-26T01:36:14.385Z,56.34
2023-03-26T01:38:58.921Z,56.47
2023-03-26T01:41:38.080Z,56.55
2023-03-26T01:44:23.350Z,56.74
2023-03-26T01:46:53.165Z,56.73
2023-03-26T01:49:21.731Z,56.84
2023-03-26T01:51:51.636Z,56.89
2023-03-26T01:54:24.032Z,56.89
2023-03-26T01:57:03.523Z,56.92
2023-03-26T01:59:57.038Z,56.92
2023-03-26T02:02:37.559Z,56.77
2023-03-26T02:05:31.541Z,56.58
2023-03-26T02:08:22.318Z,56.35
2023-03-26T02:10:58.989Z,56.21
2023-03-26T02:13:27.766Z,56.18
2023-03-26T02:16:02.445Z,56.22
2023-03-26T02:18:30.835Z,56.06
2023-03-26T02:20:58.802Z,55.90
2023-03-26T02:23:27.155Z,55.52
2023-03-26T02:25:56.357Z,55.40
2023-03-26T02:28:24.571Z,55.00
2023-03-26T02:30:52.643Z,54.61
2023-03-26T02:33:21.258Z,54.38
2023-03-26T02:35:49.571Z,54.05
2023-03-26T02:38:18.379Z,53.71
2023-03-26T02:40:46.967Z,53.51
2023-03-26T02:43:15.534Z,53.18
2023-03-26T02:45:43.733Z,52.93
2023-03-26T02:48:12.382Z,52.72
2023-03-26T02:50:40.844Z,52.40
2023-03-26T02:53:09.015Z,52.00
2023-03-26T02:55:37.320Z,51.59
2023-03-26T02:58:05.382Z,51.23
2023-03-26T03:00:34.577Z,51.04
2023-03-26T03:03:03.880Z,50.84
2023-03-26T03:05:33.200Z,50.49
2023-03-26T03:08:01.918Z,50.27
2023-03-26T03:10:30.312Z,50.08
2023-03-26T03:12:59.695Z,50.01
2023-03-26T03:15:27.922Z,49.86
2023-03-26T03:17:56.297Z,49.67
2023-03-26T03:20:24.456Z,49.48
2023-03-26T03:22:52.569Z,49.32
2023-03-26T03:25:20.903Z,49.19
2023-03-26T03:27:48.971Z,49.10
2023-03-26T03:30:17.241Z,48.98
2023-03-26T03:32:45.688Z,48.72
2023-03-26T03:35:14.510Z,48.55
2023-03-26T03:37:43.272Z,48.50
2023-03-26T03:40:11.646Z,48.32
2023-03-26T03:42:39.794Z,48.37
2023-03-26T03:45:08.503Z,48.08
2023-03-26T03:47:36.919Z,47.89
2023-03-26T03:50:07.230Z,47.70
2023-03-26T03:52:35.442Z,47.51
2023-03-26T03:55:04.665Z,47.31
2023-03-26T03:57:32.997Z,47.13
2023-03-26T04:00:01.199Z,47.03
2023-03-26T04:02:29.483Z,47.05
2023-03-26T04:04:57.741Z,46.94
2023-03-26T04:07:27.096Z,46.96
2023-03-26T04:09:55.556Z,46.99
2023-03-26T04:12:23.675Z,47.02
2023-03-26T04:14:51.975Z,46.97
2023-03-26T04:17:20.808Z,47.05
2023-03-26T04:19:53.238Z,47.07
2023-03-26T04:22:21.970Z,47.10
2023-03-26T04:24:50.162Z,47.10
2023-03-26T04:27:24.317Z,46.99
2023-03-26T04:29:52.550Z,46.95
2023-03-26T04:32:28.745Z,46.99
2023-03-26T04:35:06.381Z,46.94
2023-03-26T04:37:38.968Z,46.91
2023-03-26T04:40:15.386Z,46.72
2023-03-26T04:42:44.040Z,46.61
2023-03-26T04:45:14.863Z,46.48
2023-03-26T04:47:43.881Z,46.24
2023-03-26T04:50:12.747Z,46.05
2023-03-26T04:52:42.602Z,45.89
2023-03-26T04:55:24.545Z,45.78
2023-03-26T04:57:57.588Z,45.59
2023-03-26T05:00:26.678Z,45.40
2023-03-26T05:02:55.046Z,45.26
2023-03-26T05:05:24.200Z,45.13
2023-03-26T05:07:52.793Z,44.89
2023-03-26T05:10:22.114Z,44.75
2023-03-26T05:12:50.460Z,44.65
2023-03-26T05:15:18.815Z,44.41
2023-03-26T05:17:47.029Z,44.29
2023-03-26T05:20:24.071Z,44.16
2023-03-26T05:22:53.022Z,43.97
2023-03-26T05:25:22.242Z,43.89
2023-03-26T05:27:50.973Z,44.02
2023-03-26T05:30:21.896Z,44.04
2023-03-26T05:32:50.379Z,44.01
2023-03-26T05:35:19.871Z,43.96
2023-03-26T05:37:48.471Z,43.95
2023-03-26T05:40:16.846Z,43.91
2023-03-26T05:42:45.950Z,43.92
2023-03-26T05:45:15.529Z,43.98
2023-03-26T05:47:43.824Z,43.93
2023-03-26T05:50:12.317Z,43.84
2023-03-26T05:52:40.550Z,43.70
2023-03-26T05:55:09.540Z,43.66
2023-03-26T05:57:38.141Z,43.50
2023-03-26T06:00:07.456Z,43.31
2023-03-26T06:02:36.216Z,43.29
2023-03-26T06:05:04.801Z,43.20
2023-03-26T06:07:33.038Z,43.04
2023-03-26T06:10:01.616Z,42.91
2023-03-26T06:12:30.762Z,42.84
2023-03-26T06:14:58.932Z,42.76
2023-03-26T06:17:27.269Z,42.43
2023-03-26T06:19:55.561Z,42.18
2023-03-26T06:22:23.766Z,41.87
2023-03-26T06:24:51.843Z,41.47
2023-03-26T06:27:20.165Z,41.10
2023-03-26T06:29:48.312Z,40.99
2023-03-26T06:32:20.127Z,40.87
2023-03-26T06:34:48.955Z,40.55
2023-03-26T06:37:17.363Z,40.19
2023-03-26T06:39:45.636Z,39.93
2023-03-26T06:42:13.897Z,39.47
2023-03-26T06:44:42.059Z,38.45
2023-03-26T06:47:10.093Z,36.66
2023-03-26T06:49:38.398Z,34.96
2023-03-26T06:52:06.563Z,33.73
2023-03-26T06:54:34.743Z,32.73
2023-03-26T06:57:03.140Z,31.78
2023-03-26T06:59:31.465Z,30.68
2023-03-26T07:01:59.562Z,30.02
2023-03-26T07:04:28.037Z,29.69
2023-03-26T07:06:56.442Z,29.54
2023-03-26T07:09:24.673Z,29.88
2023-03-26T07:11:52.976Z,29.92
2023-03-26T07:14:21.284Z,30.08
2023-03-26T07:16:49.446Z,30.44
2023-03-26T07:19:18.294Z,30.97
2023-03-26T07:21:46.755Z,31.32
2023-03-26T07:24:15.372Z,31.60
2023-03-26T07:26:49.412Z,32.04
2023-03-26T07:29:35.234Z,31.91
2023-03-26T07:32:32.064Z,31.96
2023-03-26T07:35:46.099Z,32.37
2023-03-26T07:38:39.085Z,32.84
2023-03-26T07:41:09.855Z,32.61
2023-03-26T07:44:03.222Z,32.43
2023-03-26T07:46:33.069Z,32.79
2023-03-26T07:49:01.529Z,33.33
2023-03-26T07:51:30.184Z,33.66
2023-03-26T07:53:58.552Z,33.67
2023-03-26T07:56:37.902Z,33.72
2023-03-26T07:59:49.442Z,33.69
2023-03-26T08:02:47.090Z,33.19
2023-03-26T08:05:15.545Z,33.05
2023-03-26T08:07:59.291Z,32.57
2023-03-26T08:10:33.430Z,32.93
2023-03-26T08:13:27.180Z,33.64
2023-03-26T08:16:18.493Z,34.09
2023-03-26T08:18:56.443Z,34.39
2023-03-26T08:21:29.833Z,34.46
2023-03-26T08:24:13.771Z,34.28
2023-03-26T08:26:53.797Z,34.41
2023-03-26T08:29:39.627Z,34.12
2023-03-26T08:32:16.185Z,34.00
2023-03-26T08:34:45.000Z,33.86
2023-03-26T08:37:13.521Z,33.75
2023-03-26T08:39:42.295Z,33.69
2023-03-26T08:42:47.913Z,33.72
2023-03-26T08:45:44.827Z,33.58
2023-03-26T08:48:27.935Z,33.46
2023-03-26T08:51:03.279Z,33.53
2023-03-26T08:53:50.257Z,33.35
2023-03-26T08:56:29.943Z,33.15
2023-03-26T08:59:26.226Z,32.84
2023-03-26T09:02:22.680Z,32.54
2023-03-26T09:05:18.140Z,32.37
2023-03-26T09:08:11.295Z,32.12
2023-03-26T09:11:05.697Z,31.93
2023-03-26T09:13:56.851Z,31.83
2023-03-26T09:17:23.390Z,32.10
2023-03-26T09:19:58.266Z,31.29
2023-03-26T09:22:56.600Z,31.22
2023-03-26T09:25:47.745Z,30.99
2023-03-26T09:28:40.907Z,30.32
2023-03-26T09:31:24.389Z,29.66
2023-03-26T09:34:27.857Z,29.08
2023-03-26T09:37:03.113Z,29.00
2023-03-26T09:39:39.317Z,28.81
2023-03-26T09:42:17.197Z,28.13
2023-03-26T09:45:16.982Z,27.40
2023-03-26T09:48:13.102Z,27.16
2023-03-26T09:51:13.108Z,26.58
2023-03-26T09:54:26.750Z,26.40
2023-03-26T09:57:29.009Z,25.73
2023-03-26T10:00:26.993Z,25.41
2023-03-26T10:03:04.728Z,24.85
2023-03-26T10:06:05.673Z,24.83
2023-03-26T10:08:44.095Z,24.50
2023-03-26T10:11:31.973Z,24.16
2023-03-26T10:14:19.096Z,24.45
2023-03-26T10:17:31.820Z,24.39
2023-03-26T10:20:09.422Z,24.28
2023-03-26T10:23:25.367Z,24.20
2023-03-26T10:26:02.841Z,24.03
2023-03-26T10:28:47.353Z,23.37
2023-03-26T10:31:37.399Z,23.71
2023-03-26T10:34:28.498Z,24.75
2023-03-26T10:37:25.494Z,25.55
2023-03-26T10:40:17.026Z,26.02
2023-03-26T10:43:13.630Z,26.72
2023-03-26T10:45:54.816Z,26.96
2023-03-26T10:48:37.073Z,27.44
2023-03-26T10:51:54.228Z,27.85
2023-03-26T10:54:34.126Z,27.85
2023-03-26T10:57:11.775Z,28.00
2023-03-26T10:59:40.268Z,28.14
2023-03-26T11:02:30.454Z,27.25
2023-03-26T11:05:27.731Z,26.74
2023-03-26T11:08:20.442Z,26.85
2023-03-26T11:11:22.511Z,26.41
2023-03-26T11:14:34.271Z,25.76
2023-03-26T11:17:39.452Z,24.88
2023-03-26T11:20:27.708Z,23.87
2023-03-26T11:23:08.225Z,23.36
2023-03-26T11:25:44.913Z,23.24
2023-03-26T11:28:23.533Z,22.67
2023-03-26T11:31:08.805Z,22.61
2023-03-26T11:33:50.509Z,22.23
2023-03-26T11:36:30.054Z,21.54
2023-03-26T11:39:01.902Z,21.40
2023-03-26T11:41:31.006Z,21.29
2023-03-26T11:44:04.447Z,20.96
2023-03-26T11:46:39.035Z,20.58
2023-03-26T11:49:11.772Z,20.50
2023-03-26T11:51:41.990Z,20.33
2023-03-26T11:54:13.599Z,20.10
2023-03-26T11:57:06.089Z,19.87
2023-03-26T11:59:57.035Z,19.50
2023-03-26T12:02:30.937Z,19.17
2023-03-26T12:05:11.789Z,19.21
2023-03-26T12:07:52.345Z,18.91
2023-03-26T12:10:25.473Z,18.83
2023-03-26T12:12:58.431Z,21.67
2023-03-26T12:15:28.146Z,23.68
2023-03-26T12:17:58.542Z,24.68
2023-03-26T12:20:35.829Z,26.04
2023-03-26T12:23:05.511Z,26.97
2023-03-26T12:25:36.764Z,27.40
2023-03-26T12:28:19.961Z,28.21
2023-03-26T12:31:01.820Z,29.61
2023-03-26T12:33:35.050Z,30.63
2023-03-26T12:36:36.666Z,31.21
2023-03-26T12:40:06.755Z,31.53
2023-03-26T12:44:52.934Z,31.29
2023-03-26T12:45:28.509Z,31.72
2023-03-26T12:48:03.495Z,31.66
2023-03-26T12:50:53.341Z,31.71
2023-03-26T12:53:31.181Z,31.98
2023-03-26T12:56:09.636Z,33.05
2023-03-26T12:59:03.035Z,33.68
2023-03-26T13:01:53.208Z,33.93
2023-03-26T13:04:35.709Z,34.51
2023-03-26T13:07:22.726Z,34.56
2023-03-26T13:10:18.879Z,34.63
2023-03-26T13:13:10.954Z,34.59
2023-03-26T13:15:47.513Z,34.80
2023-03-26T13:18:23.115Z,35.78
2023-03-26T13:21:19.539Z,36.47
2023-03-26T13:24:13.543Z,36.60
2023-03-26T13:26:57.863Z,36.89
2023-03-26T13:30:00.669Z,37.48
2023-03-26T13:33:14.591Z,38.80
2023-03-26T13:36:22.524Z,39.40
2023-03-26T13:39:10.726Z,39.11
2023-03-26T13:42:06.573Z,40.01
2023-03-26T13:45:13.692Z,42.05
2023-03-26T13:47:47.632Z,42.66
2023-03-26T13:50:33.533Z,43.30
2023-03-26T13:54:00.365Z,44.22
2023-03-26T13:56:36.914Z,44.72
2023-03-26T13:59:16.986Z,45.54
2023-03-26T14:01:59.623Z,46.35
2023-03-26T14:04:54.155Z,46.77
2023-03-26T14:07:34.631Z,47.10
2023-03-26T14:10:16.207Z,47.29
2023-03-26T14:12:57.317Z,47.06
2023-03-26T14:15:53.621Z,47.12
2023-03-26T14:18:32.860Z,48.25
2023-03-26T14:21:16.554Z,48.98
2023-03-26T14:23:56.831Z,49.46
2023-03-26T14:26:54.159Z,50.09
2023-03-26T14:29:56.869Z,49.61
2023-03-26T14:32:28.574Z,48.74
2023-03-26T14:35:15.612Z,48.51
2023-03-26T14:38:06.554Z,48.62
2023-03-26T14:40:58.748Z,48.18
2023-03-26T14:43:48.285Z,48.13
2023-03-26T14:46:38.384Z,48.09
2023-03-26T14:49:33.083Z,48.15
2023-03-26T14:52:16.299Z,47.65
2023-03-26T14:54:49.287Z,47.16
2023-03-26T14:57:57.318Z,46.32
2023-03-26T15:01:05.388Z,44.82
2023-03-26T15:03:55.217Z,44.14
2023-03-26T15:06:55.360Z,44.10
2023-03-26T15:09:42.649Z,44.33
2023-03-26T15:12:48.457Z,44.68
2023-03-26T15:15:55.247Z,45.27
2023-03-26T15:18:52.788Z,45.56
2023-03-26T15:21:53.387Z,45.49
2023-03-26T15:24:39.964Z,45.79
2023-03-26T15:27:33.074Z,45.65
2023-03-26T15:30:28.745Z,45.65
2023-03-26T15:33:32.990Z,45.99
2023-03-26T15:36:29.833Z,45.96
2023-03-26T15:39:36.866Z,46.01
2023-03-26T15:42:28.245Z,45.71
2023-03-26T15:45:22.028Z,45.73
2023-03-26T15:48:07.257Z,45.82
2023-03-26T15:51:12.470Z,45.50
2023-03-26T15:54:03.249Z,45.48
2023-03-26T15:56:55.642Z,45.74
2023-03-26T15:59:42.174Z,45.65
2023-03-26T16:02:58.498Z,45.24
2023-03-26T16:05:40.584Z,45.01
2023-03-26T16:08:35.233Z,45.00
2023-03-26T16:11:11.655Z,45.35
2023-03-26T16:13:55.260Z,45.54
2023-03-26T16:16:25.333Z,45.67
2023-03-26T16:19:17.948Z,45.81
2023-03-26T16:22:00.563Z,46.10
2023-03-26T16:24:42.723Z,46.14
2023-03-26T16:27:31.274Z,46.23
2023-03-26T16:30:33.272Z,46.55
2023-03-26T16:33:18.659Z,46.68
2023-03-26T16:35:54.184Z,46.78
2023-03-26T16:38:24.561Z,47.46
2023-03-26T16:40:58.351Z,48.12
2023-03-26T16:43:37.188Z,48.31
2023-03-26T16:46:37.588Z,48.59
2023-03-26T16:49:45.647Z,49.06
2023-03-26T16:52:33.822Z,49.80
2023-03-26T16:55:40.615Z,49.98
2023-03-26T16:58:36.435Z,50.37
2023-03-26T17:01:10.529Z,50.72
2023-03-26T17:04:04.669Z,51.11
2023-03-26T17:07:11.715Z,51.42
2023-03-26T17:09:59.237Z,51.69
2023-03-26T17:12:40.226Z,52.11
2023-03-26T17:15:39.939Z,52.21
2023-03-26T17:18:36.035Z,52.57
2023-03-26T17:21:45.918Z,52.85
2023-03-26T17:24:33.777Z,53.13
2023-03-26T17:27:20.708Z,53.49
2023-03-26T17:30:18.081Z,53.88
2023-03-26T17:32:57.841Z,54.59
2023-03-26T17:35:47.120Z,54.61
2023-03-26T17:38:27.542Z,54.59
2023-03-26T17:40:59.951Z,54.69
2023-03-26T17:43:43.138Z,54.88
2023-03-26T17:46:27.008Z,54.87
2023-03-26T17:49:34.314Z,54.89
2023-03-26T17:52:18.368Z,54.91
2023-03-26T17:54:51.460Z,54.92
2023-03-26T17:57:26.865Z,54.69
2023-03-26T18:00:00.028Z,54.53
2023-03-26T18:02:37.658Z,54.48
2023-03-26T18:05:10.705Z,54.67
2023-03-26T18:08:04.020Z,54.47
2023-03-26T18:10:59.255Z,54.30
2023-03-26T18:13:50.604Z,54.20
2023-03-26T18:16:32.828Z,54.05
2023-03-26T18:19:08.393Z,53.95
2023-03-26T18:21:40.529Z,53.92
2023-03-26T18:24:15.601Z,53.90
2023-03-26T18:26:52.600Z,53.78
2023-03-26T18:29:24.526Z,53.76
2023-03-26T18:32:23.206Z,53.72
2023-03-26T18:34:58.627Z,53.54
2023-03-26T18:37:35.046Z,53.54
2023-03-26T18:40:19.304Z,53.53
2023-03-26T18:42:58.054Z,53.51
2023-03-26T18:45:51.073Z,53.41
2023-03-26T18:48:23.092Z,53.03
2023-03-26T18:51:00.191Z,52.25
2023-03-26T18:53:51.149Z,51.65
2023-03-26T18:56:40.550Z,51.45
2023-03-26T18:59:27.294Z,51.59
2023-03-26T19:01:58.034Z,51.66
2023-03-26T19:04:31.026Z,51.67
2023-03-26T19:07:01.180Z,51.81
2023-03-26T19:09:33.166Z,52.04
2023-03-26T19:12:11.237Z,52.15
2023-03-26T19:15:04.116Z,52.48
2023-03-26T19:17:40.058Z,52.85
2023-03-26T19:20:19.146Z,52.85
2023-03-26T19:22:48.877Z,52.94
2023-03-26T19:25:24.384Z,52.70
2023-03-26T19:27:54.727Z,51.79
2023-03-26T19:30:33.083Z,50.13
2023-03-26T19:33:12.899Z,47.67
2023-03-26T19:35:44.284Z,45.03
2023-03-26T19:38:37.800Z,42.83
2023-03-26T19:41:07.107Z,40.46
2023-03-26T19:43:35.281Z,39.17
2023-03-26T19:46:03.718Z,37.74
2023-03-26T19:48:45.881Z,36.67
2023-03-26T19:51:24.794Z,35.74
2023-03-26T19:53:55.627Z,34.89
2023-03-26T19:56:24.248Z,33.99
2023-03-26T19:58:52.817Z,33.30
2023-03-26T20:01:26.079Z,32.81
2023-03-26T20:03:58.251Z,32.15
2023-03-26T20:06:41.457Z,31.46
2023-03-26T20:09:13.139Z,30.68
2023-03-26T20:11:42.262Z,30.36
2023-03-26T20:14:17.788Z,29.87
2023-03-26T20:16:46.881Z,29.56
2023-03-26T20:19:15.655Z,29.39
2023-03-26T20:21:45.194Z,28.82
2023-03-26T20:24:18.800Z,28.41
2023-03-26T20:26:48.032Z,28.22
2023-03-26T20:29:17.345Z,27.83
2023-03-26T20:31:47.171Z,27.31
2023-03-26T20:34:22.803Z,27.10
2023-03-26T20:36:52.065Z,26.69
2023-03-26T20:39:25.784Z,26.41
2023-03-26T20:41:55.182Z,26.11
2023-03-26T20:44:24.285Z,25.81
2023-03-26T20:46:54.915Z,25.63
2023-03-26T20:49:23.208Z,25.53
2023-03-26T20:51:52.233Z,25.40
2023-03-26T20:54:23.968Z,25.05
2023-03-26T20:56:53.746Z,24.77
2023-03-26T20:59:27.342Z,24.53
2023-03-26T21:01:57.985Z,23.90
2023-03-26T21:04:27.377Z,23.30
2023-03-26T21:07:07.025Z,23.05
2023-03-26T21:09:40.261Z,22.66
2023-03-26T21:12:21.208Z,22.28
2023-03-26T21:14:49.766Z,21.98
2023-03-26T21:17:21.104Z,21.81
2023-03-26T21:19:50.153Z,21.96
2023-03-26T21:22:39.910Z,21.79
2023-03-26T21:25:21.726Z,21.71
2023-03-26T21:28:15.074Z,21.79
2023-03-26T21:30:43.673Z,21.79
2023-03-26T21:33:11.861Z,21.63
2023-03-26T21:35:40.886Z,21.67
2023-03-26T21:38:11.089Z,21.67
2023-03-26T21:40:44.485Z,21.70
2023-03-26T21:43:16.428Z,21.96
2023-03-26T21:45:46.196Z,22.18
2023-03-26T21:48:16.056Z,22.15
2023-03-26T21:50:45.036Z,21.98
2023-03-26T21:53:15.006Z,21.85
2023-03-26T21:55:52.760Z,21.60
2023-03-26T21:58:27.419Z,21.45
2023-03-26T22:01:42.111Z,21.37
2023-03-26T22:05:07.869Z,20.99
2023-03-26T22:07:51.511Z,20.80
2023-03-26T22:10:20.056Z,20.45
2023-03-26T22:12:48.515Z,20.51
2023-03-26T22:15:17.938Z,20.22
2023-03-26T22:17:46.902Z,20.48
2023-03-26T22:20:15.314Z,20.26
2023-03-26T22:22:43.752Z,20.28
2023-03-26T22:25:11.905Z,19.90
2023-03-26T22:27:43.845Z,19.88
2023-03-26T22:30:14.664Z,19.03
2023-03-26T22:32:44.062Z,18.69
2023-03-26T22:35:12.960Z,18.69
2023-03-26T22:37:42.018Z,18.76
2023-03-26T22:40:11.941Z,18.55
2023-03-26T22:42:41.298Z,17.92
2023-03-26T22:45:11.460Z,17.81
2023-03-26T22:47:40.069Z,17.68
2023-03-26T22:50:09.395Z,17.46
2023-03-26T22:52:38.860Z,16.91
2023-03-26T22:55:08.181Z,16.58
2023-03-26T22:57:36.696Z,16.52
2023-03-26T23:00:08.891Z,16.59
2023-03-26T23:02:37.194Z,16.60
2023-03-26T23:05:05.735Z,16.73
2023-03-26T23:07:34.009Z,16.97
2023-03-26T23:10:02.680Z,17.22
2023-03-26T23:12:30.934Z,17.11
2023-03-26T23:14:59.821Z,16.60
2023-03-26T23:17:27.991Z,16.62
2023-03-26T23:19:56.712Z,16.46
2023-03-26T23:22:25.311Z,16.38
2023-03-26T23:24:53.480Z,16.23
2023-03-26T23:27:22.634Z,16.27
2023-03-26T23:29:51.227Z,16.32
2023-03-26T23:32:24.746Z,16.23
2023-03-26T23:34:53.523Z,16.52
2023-03-26T23:37:23.186Z,16.46
2023-03-26T23:39:53.306Z,16.53
2023-03-26T23:42:28.494Z,16.74
2023-03-26T23:44:58.369Z,16.76
2023-03-26T23:47:27.070Z,16.95
2023-03-26T23:49:55.222Z,16.70
2023-03-26T23:52:23.520Z,16.59
2023-03-26T23:54:51.675Z,16.69
2023-03-26T23:57:20.347Z,16.61
2023-03-26T23:59:49.386Z,16.53
